»·PEaware :: N63D KAVX-KSBP

N63D :: KAVX-KSBP

FLIGHT INFORMATION

Flight Status: Arrived
Operator: Privately registered:
United States
More flights under this callsign
Pilot: Hassan P. (16390)
Aircraft: BEECH AIRCRAFT BARON
(BE58)
More flights by this aircraft type
Origin: KAVX Catalina
United States
Destination: KSBP San Luis Co Regl
United States
More flights between these airports :: More routes between these airports
Route: +
File this flight plan on PilotEdge
Remarks:
Altitude:
(Current/Filed)
8,500ft
Speed:
(Current/Filed)
165kts
Departed: 15-Dec-17 02:09 PM
Arrived: 15-Dec-17 03:20 PM
Distance/Time
Traveled:
156nm/1:11
Distance/Time
To Go:
Arrived

Flight Plot

Page will automatically refresh every two minutes.

Flight plan parsing failed; only flown route is shown


Map Options




Map Legend


Flown Route
Filed Route
Departure Airport
Arrival Airport
Navaid (VOR, NDB)
Fix

Horizontal Profiles

Position Reports

Time Latitude Longitude Heading Altitude Ground
Speed
15-Dec-17 14:06 33.403881 -118.414879 254 1552ft 0kts
15-Dec-17 14:07 33.403881 -118.414879 254 1552ft 0kts
15-Dec-17 14:08 33.403881 -118.414879 254 1552ft 0kts
15-Dec-17 14:09 33.403881 -118.414879 254 1552ft 0kts
15-Dec-17 14:10 33.403881 -118.414879 254 1552ft 0kts
15-Dec-17 14:11 33.403414 -118.416065 285 1552ft 4kts
15-Dec-17 14:12 33.404375 -118.416088 53 1552ft 12kts
15-Dec-17 14:13 33.406434 -118.412645 55 1552ft 10kts
15-Dec-17 14:14 33.407402 -118.411701 247 1552ft 4kts
15-Dec-17 14:15 33.399173 -118.425440 237 1853ft 107kts
15-Dec-17 14:16 33.415148 -118.429767 73 3084ft 147kts
15-Dec-17 14:17 33.422856 -118.383613 76 4553ft 135kts
15-Dec-17 14:18 33.438662 -118.345927 14 5795ft 129kts
15-Dec-17 14:19 33.465493 -118.362539 301 6940ft 107kts
15-Dec-17 14:20 33.485192 -118.393073 310 7674ft 123kts
15-Dec-17 14:21 33.504814 -118.425589 300 8262ft 113kts
15-Dec-17 14:21 33.514359 -118.453457 287 8336ft 112kts
15-Dec-17 14:22 33.519218 -118.490372 283 8453ft 119kts
15-Dec-17 14:24 33.535374 -118.532799 305 8612ft 121kts
15-Dec-17 14:25 33.554718 -118.566686 306 8594ft 133kts
15-Dec-17 14:26 33.574551 -118.596063 305 8352ft 141kts
15-Dec-17 14:27 33.593661 -118.631858 297 8072ft 124kts
15-Dec-17 14:28 33.606723 -118.675109 302 8278ft 125kts
15-Dec-17 14:29 33.629573 -118.698529 320 8285ft 135kts
15-Dec-17 14:30 33.657662 -118.725162 320 8559ft 125kts
15-Dec-17 14:31 33.686472 -118.752538 320 8551ft 136kts
15-Dec-17 14:32 33.716804 -118.781372 320 8541ft 142kts
15-Dec-17 14:33 33.747925 -118.810905 320 8532ft 144kts
15-Dec-17 14:34 33.778592 -118.839875 320 8528ft 145kts
15-Dec-17 14:35 33.810416 -118.869800 320 8529ft 146kts
15-Dec-17 14:36 33.842535 -118.899877 320 8531ft 146kts
15-Dec-17 14:37 33.875771 -118.928339 324 8519ft 148kts
15-Dec-17 14:38 33.902087 -118.965317 307 8521ft 147kts
15-Dec-17 14:39 33.920027 -119.008466 273 8463ft 150kts
15-Dec-17 14:40 33.936003 -119.053110 315 8596ft 149kts
15-Dec-17 14:41 33.970114 -119.085629 320 8538ft 162kts
15-Dec-17 14:42 34.005729 -119.118819 320 8535ft 164kts
15-Dec-17 14:43 34.041646 -119.152420 320 8533ft 164kts
15-Dec-17 14:44 34.077552 -119.186195 320 8530ft 164kts
15-Dec-17 14:45 34.112853 -119.219614 320 8529ft 163kts
15-Dec-17 14:46 34.148034 -119.254161 305 8512ft 163kts
15-Dec-17 14:47 34.170482 -119.301567 299 8527ft 162kts
15-Dec-17 14:48 34.191870 -119.347803 299 8531ft 161kts
15-Dec-17 14:49 34.213133 -119.393694 299 8525ft 153kts
15-Dec-17 14:50 34.233617 -119.437905 299 8526ft 149kts
15-Dec-17 14:51 34.253848 -119.481595 299 8526ft 148kts
15-Dec-17 14:52 34.273839 -119.525053 299 8525ft 148kts
15-Dec-17 14:53 34.293719 -119.568760 299 8523ft 148kts
15-Dec-17 14:54 34.313475 -119.612642 299 8521ft 149kts
15-Dec-17 14:55 34.333161 -119.656647 299 8520ft 149kts
15-Dec-17 14:56 34.352566 -119.700069 301 8537ft 127kts
15-Dec-17 14:57 34.373340 -119.729983 319 8252ft 123kts
15-Dec-17 14:58 34.399747 -119.753840 328 8395ft 121kts
15-Dec-17 14:59 34.434577 -119.775942 335 8631ft 156kts
15-Dec-17 15:00 34.477294 -119.796505 338 8152ft 169kts
15-Dec-17 15:01 34.518355 -119.819324 328 6785ft 157kts
15-Dec-17 15:02 34.549301 -119.854427 308 6612ft 153kts
15-Dec-17 15:03 34.578417 -119.897052 303 6556ft 171kts
15-Dec-17 15:04 34.602635 -119.946826 303 6651ft 169kts
15-Dec-17 15:05 34.630719 -119.993621 309 6558ft 179kts
15-Dec-17 15:06 34.661126 -120.040654 307 6510ft 177kts
15-Dec-17 15:07 34.694451 -120.084163 318 6520ft 174kts
15-Dec-17 15:08 34.729082 -120.124390 315 6514ft 176kts
15-Dec-17 15:09 34.763563 -120.165708 316 6515ft 175kts
15-Dec-17 15:10 34.798662 -120.206010 315 6547ft 172kts
15-Dec-17 15:11 34.834650 -120.243846 320 6591ft 170kts
15-Dec-17 15:12 34.872392 -120.278740 322 6600ft 171kts
15-Dec-17 15:13 34.908304 -120.311833 312 6980ft 113kts
15-Dec-17 15:14 34.925177 -120.350806 311 5421ft 131kts
15-Dec-17 15:15 34.949038 -120.383043 325 4398ft 123kts
15-Dec-17 15:16 34.978500 -120.401610 338 4408ft 120kts
15-Dec-17 15:17 35.003418 -120.414924 319 4020ft 125kts
15-Dec-17 15:18 35.026876 -120.446667 309 2724ft 128kts
15-Dec-17 15:19 35.055964 -120.474550 326 2314ft 153kts
15-Dec-17 15:20 35.087971 -120.506128 319 2380ft 125kts
15-Dec-17 15:21 35.119456 -120.517982 356 2583ft 133kts
15-Dec-17 15:22 35.158642 -120.522138 336 2710ft 153kts
15-Dec-17 15:23 35.188973 -120.554121 299 2271ft 135kts
15-Dec-17 15:24 35.209010 -120.590996 303 1351ft 122kts
15-Dec-17 15:25 35.226485 -120.621807 304 536ft 106kts
15-Dec-17 15:26 35.239073 -120.643699 303 184ft 19kts
15-Dec-17 15:27 35.239896 -120.643368 124 184ft 9kts
15-Dec-17 15:28 35.238109 -120.640430 122 184ft 10kts
15-Dec-17 15:29 35.237284 -120.637427 31 184ft 9kts
15-Dec-17 15:30 35.238155 -120.637989 269 184ft 0kts
15-Dec-17 15:31 35.238155 -120.637989 269 184ft 0kts
15-Dec-17 15:32 35.238155 -120.637989 269 184ft 0kts

Navigation Log

Ident Type
Flight plan parsing failed, navigation log unavailable